Time;durP1;ratioP1;P1;durP2;ratioP2;P2;SDS_P1;SDS_P2;PMS_P1;PMS_P2;Temp;Humidity;BMP_temperature;BMP_pressure;BME280_temperature;BME280_humidity;BME280_pressure;Samples;Min_cycle;Max_cycle;Signal;HPM_P1;HPM_P2
2022/07/28 00:04:47;;;;;;;;;;;;;;;22.53;45.84;95650.28;10252871;28;1778;-72
2022/07/28 00:09:47;;;;;;;;;;;;;;;22.48;46.23;95639.78;10242378;28;1902;-72
2022/07/28 00:14:48;;;;;;;;;;;;;;;22.47;46.33;95640.88;10242869;28;1808;-72
2022/07/28 00:19:49;;;;;;;;;;;;;;;22.41;46.42;95631.47;10243122;28;1756;-72
2022/07/28 00:24:49;;;;;;;;;;;;;;;22.35;46.46;95623.91;10232622;28;1802;-72
2022/07/28 00:29:50;;;;;;;;;;;;;;;22.36;46.58;95628.13;10233326;28;2097;-72
2022/07/28 00:34:50;;;;;;;;;;;;;;;22.28;46.82;95621.63;10233927;28;1861;-72
2022/07/28 00:39:50;;;;;;;;;;;;;;;22.19;47.02;95617.28;10249128;28;1874;-72
2022/07/28 00:44:51;;;;;;;;;;;;;;;22.11;47.02;95612.66;10240222;28;2203;-72
2022/07/28 00:49:51;;;;;;;;;;;;;;;22.03;47.37;95611.41;10241895;28;1961;-72
2022/07/28 00:54:51;;;;;;;;;;;;;;;22.02;47.45;95604.59;10238220;28;1900;-72
2022/07/28 00:59:52;;;;;;;;;;;;;;;21.99;47.83;95602.50;10238682;28;2049;-72
2022/07/28 01:04:52;;;;;;;;;;;;;;;21.97;47.83;95598.59;10238931;28;1997;-72
2022/07/28 01:10:03;;;;;;;;;;;;;;;21.92;47.96;95580.97;10241298;28;1988;-72
2022/07/28 01:15:04;;;;;;;;;;;;;;;21.90;48.46;95577.84;10240931;28;1932;-72
2022/07/28 01:20:12;;;;;;;;;;;;;;;21.85;48.49;95575.25;10243396;28;2045;-72
2022/07/28 01:25:51;;;;;;;;;;;;;;;21.88;48.46;95566.78;10239380;28;2190;-73
2022/07/28 01:30:52;;;;;;;;;;;;;;;21.87;48.49;95573.13;10118663;29;2026;-73
2022/07/28 01:36:02;;;;;;;;;;;;;;;21.93;48.50;95566.69;10215347;28;2016;-73
2022/07/28 01:41:06;;;;;;;;;;;;;;;21.90;48.51;95559.38;10241574;28;1973;-72
2022/07/28 01:46:06;;;;;;;;;;;;;;;21.95;48.54;95553.25;10237952;28;2009;-72
2022/07/28 01:51:07;;;;;;;;;;;;;;;21.91;48.86;95550.38;10236931;28;1923;-72
2022/07/28 01:56:07;;;;;;;;;;;;;;;21.88;48.87;95557.00;10237578;28;1973;-72
2022/07/28 02:01:08;;;;;;;;;;;;;;;21.86;48.99;95550.47;10254083;28;1953;-72
2022/07/28 02:06:08;;;;;;;;;;;;;;;21.86;49.16;95556.50;10237733;28;1925;-72
2022/07/28 02:16:28;;;;;;;;;;;;;;;21.90;49.00;95551.47;10235889;28;1991;-73
2022/07/28 02:21:29;;;;;;;;;;;;;;;21.87;49.45;95544.09;10233667;28;1920;-72
2022/07/28 02:26:34;;;;;;;;;;;;;;;21.84;49.41;95542.81;10233017;28;2012;-73
2022/07/28 02:31:36;;;;;;;;;;;;;;;21.83;49.19;95535.19;10232068;28;1976;-72
2022/07/28 02:36:39;;;;;;;;;;;;;;;21.74;49.47;95537.66;10232525;28;1914;-73
2022/07/28 02:41:40;;;;;;;;;;;;;;;21.78;49.58;95537.88;10240119;28;1985;-72
2022/07/28 02:46:45;;;;;;;;;;;;;;;21.80;49.31;95543.66;10235109;28;1943;-72
2022/07/28 02:51:45;;;;;;;;;;;;;;;21.77;49.35;95536.31;10235667;28;1961;-72
2022/07/28 02:56:46;;;;;;;;;;;;;;;21.65;49.79;95525.41;10237548;28;1930;-72
2022/07/28 03:01:47;;;;;;;;;;;;;;;21.62;49.95;95533.88;10232399;28;1963;-73
2022/07/28 03:23:42;;;;;;;;;;;;;;;21.57;50.09;95555.84;10255288;28;2029;-72
2022/07/28 03:28:42;;;;;;;;;;;;;;;21.60;50.09;95554.47;10256462;28;2005;-73
2022/07/28 03:33:44;;;;;;;;;;;;;;;21.57;50.03;95562.97;10245296;28;1995;-72
2022/07/28 03:38:45;;;;;;;;;;;;;;;21.54;50.02;95558.25;10246154;28;2051;-72
2022/07/28 03:43:45;;;;;;;;;;;;;;;21.52;49.98;95555.09;10239425;28;2010;-73
2022/07/28 03:48:46;;;;;;;;;;;;;;;21.44;50.30;95547.84;10219606;28;2004;-73
2022/07/28 03:53:46;;;;;;;;;;;;;;;21.40;50.37;95546.81;10238606;28;2029;-72
2022/07/28 03:58:46;;;;;;;;;;;;;;;21.42;50.43;95549.97;10251529;28;2000;-72
2022/07/28 04:03:47;;;;;;;;;;;;;;;21.39;50.60;95547.91;10245847;29;1930;-72
2022/07/28 04:08:47;;;;;;;;;;;;;;;21.36;50.65;95548.47;10247064;28;1960;-73
2022/07/28 04:13:47;;;;;;;;;;;;;;;21.34;50.58;95548.75;10240468;28;2002;-72
2022/07/28 04:18:48;;;;;;;;;;;;;;;21.32;50.77;95556.16;10249363;28;1975;-72
2022/07/28 04:23:49;;;;;;;;;;;;;;;21.37;50.69;95552.69;10240658;28;2084;-72
2022/07/28 04:28:49;;;;;;;;;;;;;;;21.38;50.88;95557.66;10240672;28;1964;-73
2022/07/28 04:33:49;;;;;;;;;;;;;;;21.36;50.57;95566.91;10238677;29;1999;-74
2022/07/28 04:38:50;;;;;;;;;;;;;;;21.37;50.64;95552.69;10239426;28;2070;-72
2022/07/28 04:43:51;;;;;;;;;;;;;;;21.34;50.63;95563.78;10239190;28;1941;-72
2022/07/28 04:48:51;;;;;;;;;;;;;;;21.18;50.91;95557.91;10240835;28;1964;-72
2022/07/28 04:53:52;;;;;;;;;;;;;;;21.15;51.17;95563.75;10253443;28;1956;-73
2022/07/28 04:58:52;;;;;;;;;;;;;;;21.18;51.24;95565.03;10247914;28;1871;-72
2022/07/28 05:03:52;;;;;;;;;;;;;;;21.16;51.11;95573.22;10237105;28;1925;-72
2022/07/28 05:08:53;;;;;;;;;;;;;;;21.16;51.17;95564.53;10237548;29;2040;-71
2022/07/28 05:13:53;;;;;;;;;;;;;;;21.33;51.03;95567.50;10239934;28;2100;-65
2022/07/28 05:18:54;;;;;;;;;;;;;;;21.59;50.41;95566.91;10236359;28;1996;-66
2022/07/28 05:23:55;;;;;;;;;;;;;;;21.79;49.98;95571.09;10234801;28;1914;-66
2022/07/28 05:28:55;;;;;;;;;;;;;;;21.94;49.57;95567.50;10233158;28;1970;-66
2022/07/28 05:33:55;;;;;;;;;;;;;;;22.06;49.25;95573.13;10229983;28;1869;-66
2022/07/28 05:38:56;;;;;;;;;;;;;;;22.16;49.31;95572.97;10238032;28;1962;-66
2022/07/28 05:43:57;;;;;;;;;;;;;;;22.24;49.13;95575.75;10252042;28;1834;-66
2022/07/28 05:48:57;;;;;;;;;;;;;;;22.30;48.82;95573.78;10234499;28;1940;-66
2022/07/28 05:53:57;;;;;;;;;;;;;;;22.36;48.59;95570.78;10255226;28;2004;-66
2022/07/28 05:58:58;;;;;;;;;;;;;;;22.42;48.55;95579.44;10236464;28;1961;-65
2022/07/28 06:03:58;;;;;;;;;;;;;;;22.46;48.06;95573.25;10241833;28;1909;-66
2022/07/28 06:08:58;;;;;;;;;;;;;;;22.51;48.12;95567.13;10252409;28;1978;-66
2022/07/28 06:13:59;;;;;;;;;;;;;;;22.55;48.18;95574.19;10250666;28;1951;-66
2022/07/28 06:18:59;;;;;;;;;;;;;;;22.60;48.07;95576.78;10246045;28;1949;-66
2022/07/28 06:23:59;;;;;;;;;;;;;;;22.63;47.91;95575.38;10234062;28;1929;-66
2022/07/28 06:29:00;;;;;;;;;;;;;;;22.67;47.78;95578.25;10239443;28;1961;-67
2022/07/28 06:34:00;;;;;;;;;;;;;;;22.70;47.50;95581.09;10234621;28;1949;-66
2022/07/28 06:39:01;;;;;;;;;;;;;;;22.73;47.80;95575.22;10243785;28;2118;-66
2022/07/28 06:44:02;;;;;;;;;;;;;;;22.77;47.35;95583.38;10242525;28;2036;-66
2022/07/28 06:49:03;;;;;;;;;;;;;;;22.80;47.34;95580.13;10243379;28;2037;-66
2022/07/28 06:54:04;;;;;;;;;;;;;;;22.82;47.38;95576.13;10247322;28;1865;-66
2022/07/28 06:59:04;;;;;;;;;;;;;;;22.84;47.48;95576.59;10246756;28;1897;-66
2022/07/28 07:04:06;;;;;;;;;;;;;;;22.87;47.18;95572.59;10261235;28;2028;-67
2022/07/28 07:09:07;;;;;;;;;;;;;;;22.89;47.22;95573.88;10246834;28;2007;-66
2022/07/28 07:14:08;;;;;;;;;;;;;;;22.92;46.95;95577.78;10241680;28;2112;-67
2022/07/28 07:19:08;;;;;;;;;;;;;;;22.94;46.96;95575.63;10242900;28;1933;-66
2022/07/28 07:24:12;;;;;;;;;;;;;;;22.95;46.93;95558.72;10260342;28;1949;-66
2022/07/28 07:29:13;;;;;;;;;;;;;;;22.98;47.02;95552.84;10241464;28;2081;-66
2022/07/28 07:34:14;;;;;;;;;;;;;;;22.99;46.98;95552.56;10246113;28;2068;-66
2022/07/28 07:39:15;;;;;;;;;;;;;;;23.02;46.75;95551.19;10238885;28;1968;-66
2022/07/28 07:44:16;;;;;;;;;;;;;;;23.03;47.06;95550.88;10242909;28;1965;-66
2022/07/28 07:49:17;;;;;;;;;;;;;;;23.06;47.03;95538.94;10256709;28;1972;-66
2022/07/28 07:54:17;;;;;;;;;;;;;;;23.07;46.76;95543.94;10237964;28;1957;-66
2022/07/28 07:59:18;;;;;;;;;;;;;;;23.09;46.69;95541.78;10241139;28;2000;-67
2022/07/28 08:04:18;;;;;;;;;;;;;;;23.13;46.72;95544.59;10258664;28;1846;-67
2022/07/28 08:09:19;;;;;;;;;;;;;;;23.14;46.62;95538.25;10242212;28;1972;-67
2022/07/28 08:14:20;;;;;;;;;;;;;;;23.15;46.69;95545.88;10238674;28;1882;-67
2022/07/28 08:19:21;;;;;;;;;;;;;;;23.17;46.62;95545.59;10238406;28;1956;-67
2022/07/28 08:24:22;;;;;;;;;;;;;;;23.19;46.73;95543.44;10256037;28;2012;-66
2022/07/28 08:29:22;;;;;;;;;;;;;;;23.20;46.76;95542.38;10241103;28;2007;-66
2022/07/28 08:34:24;;;;;;;;;;;;;;;23.21;46.45;95544.72;10236640;28;2044;-66
2022/07/28 08:39:24;;;;;;;;;;;;;;;23.23;46.75;95539.13;10241520;28;2019;-66
2022/07/28 08:44:29;;;;;;;;;;;;;;;23.25;46.48;95534.31;10241841;28;1979;-66
2022/07/28 08:49:29;;;;;;;;;;;;;;;23.26;46.71;95538.53;10237821;28;2592;-66
2022/07/28 08:54:30;;;;;;;;;;;;;;;23.29;46.70;95540.56;10240684;28;1980;-67
2022/07/28 08:59:30;;;;;;;;;;;;;;;23.30;46.69;95542.16;10242477;28;2008;-66
2022/07/28 09:04:32;;;;;;;;;;;;;;;23.31;46.44;95544.50;10241971;28;1883;-66
2022/07/28 09:09:33;;;;;;;;;;;;;;;23.33;46.39;95544.22;10239211;28;1969;-66
2022/07/28 09:14:34;;;;;;;;;;;;;;;23.35;46.24;95542.88;10240479;28;1976;-66
2022/07/28 09:19:36;;;;;;;;;;;;;;;23.36;46.37;95546.28;10237540;28;1993;-66
2022/07/28 09:24:37;;;;;;;;;;;;;;;23.39;46.43;95543.03;10233766;28;1890;-66
2022/07/28 09:29:38;;;;;;;;;;;;;;;23.41;46.64;95538.28;10237754;29;1960;-66
2022/07/28 09:34:43;;;;;;;;;;;;;;;23.42;46.37;95532.69;10238601;28;1928;-67
2022/07/28 09:39:43;;;;;;;;;;;;;;;23.43;46.30;95531.59;10233516;28;2010;-66
2022/07/28 09:44:44;;;;;;;;;;;;;;;23.46;46.64;95530.22;10232707;29;1917;-66
2022/07/28 09:49:44;;;;;;;;;;;;;;;23.47;46.52;95526.50;10237019;28;1942;-66
2022/07/28 09:55:01;;;;;;;;;;;;;;;23.49;46.37;95521.69;10253570;28;2062;-66
2022/07/28 10:00:07;;;;;;;;;;;;;;;23.50;46.60;95525.88;10236489;28;2042;-66
2022/07/28 10:05:08;;;;;;;;;;;;;;;23.51;46.53;95522.19;10237063;28;1940;-66
2022/07/28 10:10:10;;;;;;;;;;;;;;;23.54;46.39;95521.56;10221516;28;2050;-66
2022/07/28 10:20:33;;;;;;;;;;;;;;;23.58;46.59;95516.47;10232456;28;2251;-67
2022/07/28 10:25:33;;;;;;;;;;;;;;;23.59;46.24;95508.25;10238093;28;1968;-67
2022/07/28 10:30:34;;;;;;;;;;;;;;;23.61;46.12;95505.28;10231854;28;1974;-66
2022/07/28 10:35:35;;;;;;;;;;;;;;;23.63;46.51;95503.13;10239090;28;1972;-66
2022/07/28 10:40:35;;;;;;;;;;;;;;;23.64;46.28;95512.66;10242115;29;1948;-67
2022/07/28 10:45:36;;;;;;;;;;;;;;;23.67;46.34;95515.47;10233244;28;2014;-67
2022/07/28 10:50:36;;;;;;;;;;;;;;;23.69;46.33;95505.38;10239315;28;1964;-66
2022/07/28 10:55:51;;;;;;;;;;;;;;;23.70;46.22;95509.56;10233243;28;1955;-66
2022/07/28 11:00:52;;;;;;;;;;;;;;;23.72;46.34;95512.69;10238238;28;1829;-67
2022/07/28 11:05:53;;;;;;;;;;;;;;;23.73;46.28;95508.97;10238342;28;1906;-66
2022/07/28 11:10:55;;;;;;;;;;;;;;;23.74;46.25;95499.94;10237373;28;1820;-66
2022/07/28 11:15:56;;;;;;;;;;;;;;;23.76;46.18;95503.06;10237665;28;1799;-66
2022/07/28 11:21:00;;;;;;;;;;;;;;;23.78;46.31;95500.91;10236796;28;1831;-67
2022/07/28 11:26:19;;;;;;;;;;;;;;;23.79;46.33;95493.75;10242796;28;1966;-67
2022/07/28 11:31:38;;;;;;;;;;;;;;;23.81;46.23;95484.44;10254970;28;1849;-66
2022/07/28 11:36:58;;;;;;;;;;;;;;;23.83;46.35;95489.44;10242521;28;2022;-66
2022/07/28 11:42:04;;;;;;;;;;;;;;;23.85;46.07;95500.50;10244063;28;2414;-66
2022/07/28 11:47:17;;;;;;;;;;;;;;;23.87;46.32;95493.03;10242583;28;1979;-66
2022/07/28 11:52:19;;;;;;;;;;;;;;;23.88;46.34;95479.53;10240636;28;1783;-66
2022/07/28 11:57:20;;;;;;;;;;;;;;;23.90;46.02;95487.94;10255619;28;1850;-67
2022/07/28 12:02:25;;;;;;;;;;;;;;;23.91;46.29;95486.84;10238854;28;1874;-67
2022/07/28 12:07:30;;;;;;;;;;;;;;;23.93;46.02;95481.25;10237155;28;1914;-66
2022/07/28 12:12:31;;;;;;;;;;;;;;;23.95;46.07;95484.38;10240417;28;1817;-67
2022/07/28 12:17:32;;;;;;;;;;;;;;;23.95;46.02;95474.56;10237400;28;1858;-66
2022/07/28 12:22:33;;;;;;;;;;;;;;;23.97;46.20;95469.75;10242286;28;1921;-67
2022/07/28 12:27:34;;;;;;;;;;;;;;;23.98;46.17;95458.09;10237832;28;1986;-67
2022/07/28 12:32:34;;;;;;;;;;;;;;;23.99;46.07;95464.94;10254822;28;1818;-67
2022/07/28 12:37:35;;;;;;;;;;;;;;;24.00;46.15;95461.22;10253757;28;1942;-67
2022/07/28 12:42:36;;;;;;;;;;;;;;;24.02;46.03;95458.28;10227469;28;1874;-67
2022/07/28 12:47:37;;;;;;;;;;;;;;;24.04;46.01;95458.78;10245219;28;1962;-67
2022/07/28 12:52:38;;;;;;;;;;;;;;;24.05;45.86;95457.72;10239494;28;1903;-66
2022/07/28 12:57:46;;;;;;;;;;;;;;;24.07;46.14;95452.91;10247642;28;1883;-67
2022/07/28 13:02:47;;;;;;;;;;;;;;;24.07;46.13;95458.94;10233847;28;1802;-67
2022/07/28 13:07:47;;;;;;;;;;;;;;;24.08;45.94;95457.09;10237976;28;1988;-67
2022/07/28 13:12:58;;;;;;;;;;;;;;;24.09;45.94;95430.31;10246804;28;2033;-67
2022/07/28 13:17:58;;;;;;;;;;;;;;;24.10;46.20;95442.47;10252468;28;1850;-67
2022/07/28 13:22:58;;;;;;;;;;;;;;;24.12;45.96;95431.56;10253230;28;2006;-67
2022/07/28 13:27:59;;;;;;;;;;;;;;;24.13;45.96;95428.59;10245753;28;1910;-67
2022/07/28 13:32:59;;;;;;;;;;;;;;;24.14;45.92;95430.19;10239872;28;1771;-67
2022/07/28 13:37:59;;;;;;;;;;;;;;;24.14;45.84;95418.81;10238723;28;2439;-67
2022/07/28 13:43:00;;;;;;;;;;;;;;;24.15;45.76;95415.84;10240142;29;1799;-67
2022/07/28 13:48:03;;;;;;;;;;;;;;;24.16;46.01;95414.78;10237244;28;1962;-67
2022/07/28 13:53:03;;;;;;;;;;;;;;;24.16;45.74;95414.00;10250499;28;2060;-67
2022/07/28 13:58:04;;;;;;;;;;;;;;;24.17;45.80;95418.97;10239790;28;1759;-67
2022/07/28 14:03:06;;;;;;;;;;;;;;;24.18;45.75;95407.31;10235585;28;1786;-67
2022/07/28 14:08:07;;;;;;;;;;;;;;;24.19;46.00;95406.22;10234667;28;1914;-67
2022/07/28 14:13:07;;;;;;;;;;;;;;;24.21;46.07;95403.28;10235109;28;1840;-67
2022/07/28 14:18:07;;;;;;;;;;;;;;;24.21;45.84;95405.94;10234319;28;1867;-67
2022/07/28 14:23:08;;;;;;;;;;;;;;;24.22;45.76;95397.66;10237118;29;1882;-66
2022/07/28 14:28:09;;;;;;;;;;;;;;;24.22;45.92;95388.94;10252889;28;2135;-67
2022/07/28 14:33:10;;;;;;;;;;;;;;;24.23;45.74;95393.91;10241684;28;1841;-67
2022/07/28 14:38:11;;;;;;;;;;;;;;;24.23;45.91;95391.28;10239606;28;1989;-67
2022/07/28 14:43:12;;;;;;;;;;;;;;;24.24;45.99;95381.47;10235609;28;1933;-67
2022/07/28 14:48:12;;;;;;;;;;;;;;;24.25;45.84;95377.75;10232434;28;1906;-67
2022/07/28 14:53:15;;;;;;;;;;;;;;;24.26;45.90;95374.00;10247872;28;1711;-67
2022/07/28 14:58:16;;;;;;;;;;;;;;;24.27;46.06;95377.44;10221594;28;2241;-67
2022/07/28 15:03:17;;;;;;;;;;;;;;;24.27;45.93;95364.97;10258124;28;1909;-68
2022/07/28 15:08:17;;;;;;;;;;;;;;;24.29;46.10;95380.56;10245308;28;1910;-67
2022/07/28 15:13:18;;;;;;;;;;;;;;;24.28;45.83;95371.06;10239433;28;1894;-67
2022/07/28 15:18:18;;;;;;;;;;;;;;;24.30;45.84;95374.19;10254822;28;1894;-67
2022/07/28 15:23:18;;;;;;;;;;;;;;;24.30;45.70;95374.19;10238326;28;1908;-67
2022/07/28 15:28:19;;;;;;;;;;;;;;;24.31;45.90;95370.44;10237190;28;1918;-67
2022/07/28 15:33:20;;;;;;;;;;;;;;;24.32;45.94;95372.00;10240823;28;1832;-67
2022/07/28 15:38:21;;;;;;;;;;;;;;;24.31;45.75;95375.72;10238586;28;1850;-67
2022/07/28 15:43:21;;;;;;;;;;;;;;;24.33;45.59;95370.91;10239391;28;1861;-67
2022/07/28 15:48:22;;;;;;;;;;;;;;;24.32;45.82;95367.47;10237658;28;2431;-68
2022/07/28 15:53:22;;;;;;;;;;;;;;;24.33;45.84;95361.09;10239894;28;1884;-67
2022/07/28 15:58:25;;;;;;;;;;;;;;;24.33;45.52;95355.81;10245225;28;1896;-67
2022/07/28 16:03:27;;;;;;;;;;;;;;;24.34;45.76;95348.63;10238066;28;1826;-67
2022/07/28 16:08:27;;;;;;;;;;;;;;;24.35;45.89;95355.50;10243120;28;1961;-67
2022/07/28 16:13:28;;;;;;;;;;;;;;;24.36;45.78;95354.41;10238135;28;1788;-67
2022/07/28 16:18:28;;;;;;;;;;;;;;;24.36;45.76;95357.06;10244157;29;1787;-67
2022/07/28 16:23:28;;;;;;;;;;;;;;;24.36;45.58;95359.72;10240807;29;1795;-67
2022/07/28 16:28:29;;;;;;;;;;;;;;;24.35;45.60;95361.56;10251397;28;1914;-67
2022/07/28 16:33:31;;;;;;;;;;;;;;;24.36;45.86;95365.78;10235342;28;1910;-67
2022/07/28 16:38:32;;;;;;;;;;;;;;;24.36;45.66;95357.81;10243212;28;1853;-66
2022/07/28 16:43:32;;;;;;;;;;;;;;;24.37;45.84;95361.25;10239230;29;2035;-67
2022/07/28 16:48:32;;;;;;;;;;;;;;;24.38;45.62;95357.53;10238877;28;1954;-67
2022/07/28 16:53:34;;;;;;;;;;;;;;;24.38;45.74;95370.78;10234737;29;1895;-67
2022/07/28 16:58:36;;;;;;;;;;;;;;;24.38;45.68;95366.25;10238213;28;1865;-67
2022/07/28 17:03:37;;;;;;;;;;;;;;;24.39;45.51;95361.72;10238298;28;1855;-67
2022/07/28 17:08:38;;;;;;;;;;;;;;;24.39;45.68;95364.38;10236028;28;1942;-67
2022/07/28 17:13:38;;;;;;;;;;;;;;;24.40;45.39;95363.31;10232735;28;1835;-67
2022/07/28 17:18:38;;;;;;;;;;;;;;;24.40;45.67;95363.31;10237920;28;1851;-67
2022/07/28 17:23:39;;;;;;;;;;;;;;;24.41;45.54;95370.16;10234052;28;1960;-67
2022/07/28 17:28:40;;;;;;;;;;;;;;;24.41;45.84;95380.75;10244564;29;1977;-67
2022/07/28 17:33:40;;;;;;;;;;;;;;;24.42;45.81;95383.09;10240203;28;1849;-67
2022/07/28 17:38:41;;;;;;;;;;;;;;;24.45;45.77;95379.06;10240385;28;1822;-67
2022/07/28 17:43:42;;;;;;;;;;;;;;;24.45;46.04;95379.06;10239627;28;1708;-66
2022/07/28 17:48:42;;;;;;;;;;;;;;;24.47;46.23;95382.19;10239336;29;2574;-68
2022/07/28 17:53:43;;;;;;;;;;;;;;;24.50;46.08;95373.63;10237547;28;1826;-66
2022/07/28 17:58:43;;;;;;;;;;;;;;;24.49;46.24;95388.72;10238924;28;1898;-67
2022/07/28 18:03:44;;;;;;;;;;;;;;;24.50;46.50;95406.22;10239409;28;1645;-67
2022/07/28 18:08:44;;;;;;;;;;;;;;;24.52;46.40;95416.50;10242522;28;2157;-69
2022/07/28 18:13:45;;;;;;;;;;;;;;;24.50;46.59;95414.16;10244190;28;1881;-70
2022/07/28 18:18:45;;;;;;;;;;;;;;;24.51;46.42;95422.88;10243574;28;1871;-67
2022/07/28 18:23:45;;;;;;;;;;;;;;;24.50;46.56;95431.91;10239098;28;1887;-67
2022/07/28 18:28:45;;;;;;;;;;;;;;;24.51;46.28;95434.25;10250657;28;1899;-68
2022/07/28 18:33:46;;;;;;;;;;;;;;;24.51;46.37;95430.81;10238824;28;2014;-66
2022/07/28 18:38:46;;;;;;;;;;;;;;;24.52;46.37;95416.50;10238299;28;1852;-67
2022/07/28 18:43:47;;;;;;;;;;;;;;;24.51;46.43;95418.34;10235445;28;1865;-67
2022/07/28 18:48:47;;;;;;;;;;;;;;;24.51;46.27;95422.88;10234627;28;1919;-67
2022/07/28 18:53:48;;;;;;;;;;;;;;;24.51;46.37;95417.56;10234264;28;2097;-69
2022/07/28 18:58:52;;;;;;;;;;;;;;;24.52;46.35;95409.34;10234003;28;1873;-69
2022/07/28 19:03:53;;;;;;;;;;;;;;;24.53;46.51;95420.69;10233788;28;1769;-69
2022/07/28 19:08:53;;;;;;;;;;;;;;;24.52;46.34;95429.75;10235173;28;1978;-69
2022/07/28 19:13:54;;;;;;;;;;;;;;;24.53;46.39;95428.63;10236367;28;1868;-69
2022/07/28 19:18:54;;;;;;;;;;;;;;;24.52;46.33;95424.44;10235258;28;1960;-69
2022/07/28 19:23:55;;;;;;;;;;;;;;;24.53;46.30;95431.28;10232561;28;2128;-69
2022/07/28 19:28:56;;;;;;;;;;;;;;;24.53;46.42;95428.63;10231649;28;1923;-69
2022/07/28 19:33:57;;;;;;;;;;;;;;;24.54;46.04;95430.22;10235732;28;1855;-69
2022/07/28 19:38:57;;;;;;;;;;;;;;;24.52;46.33;95430.53;10229350;28;1937;-69
2022/07/28 19:43:58;;;;;;;;;;;;;;;24.54;46.02;95432.88;10233007;28;1913;-69
2022/07/28 19:48:58;;;;;;;;;;;;;;;24.52;45.99;95446.44;10242752;29;1990;-69
2022/07/28 19:53:59;;;;;;;;;;;;;;;24.53;46.36;95445.31;10238393;28;1830;-69
2022/07/28 19:59:00;;;;;;;;;;;;;;;24.54;46.26;95444.25;10236773;28;1962;-69
2022/07/28 20:04:01;;;;;;;;;;;;;;;24.55;46.47;95456.41;10232166;28;1917;-68
2022/07/28 20:09:01;;;;;;;;;;;;;;;24.56;46.24;95457.97;10244679;28;1942;-67
2022/07/28 20:14:02;;;;;;;;;;;;;;;24.57;46.53;95466.69;10239928;28;1888;-67
2022/07/28 20:19:02;;;;;;;;;;;;;;;24.56;46.67;95465.94;10250826;28;1866;-66
2022/07/28 20:24:03;;;;;;;;;;;;;;;24.58;46.51;95484.97;10235925;28;1960;-68
2022/07/28 20:29:04;;;;;;;;;;;;;;;24.48;46.21;95482.56;10238875;28;1968;-69
2022/07/28 20:34:05;;;;;;;;;;;;;;;24.46;46.11;95494.56;10233379;28;1863;-69
2022/07/28 20:39:06;;;;;;;;;;;;;;;24.42;46.18;95483.75;10248459;28;1837;-69
2022/07/28 20:44:07;;;;;;;;;;;;;;;24.39;46.68;95479.09;10258222;28;1888;-69
2022/07/28 20:49:07;;;;;;;;;;;;;;;24.40;47.38;95485.19;10236467;28;2154;-69
2022/07/28 20:54:07;;;;;;;;;;;;;;;24.41;48.16;95490.16;10250197;28;1921;-70
2022/07/28 20:59:08;;;;;;;;;;;;;;;24.38;48.84;95490.00;10238317;28;1887;-69
2022/07/28 21:04:09;;;;;;;;;;;;;;;24.38;48.68;95508.53;10239913;28;1841;-70
2022/07/28 21:09:09;;;;;;;;;;;;;;;24.32;49.03;95509.75;10247048;28;2306;-70
2022/07/28 21:14:09;;;;;;;;;;;;;;;24.32;48.95;95533.59;10253130;28;1932;-69
2022/07/28 21:19:10;;;;;;;;;;;;;;;24.23;48.61;95542.25;10256199;28;1872;-69
2022/07/28 21:24:10;;;;;;;;;;;;;;;24.17;48.45;95563.88;10235442;28;1728;-70
2022/07/28 21:29:10;;;;;;;;;;;;;;;24.02;47.89;95574.78;10236106;28;1979;-69
2022/07/28 21:34:12;;;;;;;;;;;;;;;23.78;46.79;95582.19;10241552;28;1787;-70
2022/07/28 21:39:12;;;;;;;;;;;;;;;23.67;45.75;95581.63;10232493;28;1960;-69
2022/07/28 21:44:12;;;;;;;;;;;;;;;23.64;44.98;95589.38;10240044;28;1893;-69
2022/07/28 21:49:13;;;;;;;;;;;;;;;23.53;44.30;95594.09;10237545;28;1965;-69
2022/07/28 21:54:13;;;;;;;;;;;;;;;23.45;43.98;95602.72;10246976;28;1865;-69
2022/07/28 21:59:14;;;;;;;;;;;;;;;23.45;43.82;95613.31;10234241;28;2001;-69
2022/07/28 22:04:14;;;;;;;;;;;;;;;23.31;43.72;95623.84;10241270;28;1911;-69
2022/07/28 22:09:14;;;;;;;;;;;;;;;23.30;44.09;95632.09;10241969;28;1982;-69
2022/07/28 22:14:15;;;;;;;;;;;;;;;23.34;43.64;95643.69;10236200;28;1771;-70
2022/07/28 22:19:15;;;;;;;;;;;;;;;23.11;43.94;95657.81;10250947;28;1766;-68
2022/07/28 22:24:15;;;;;;;;;;;;;;;23.06;44.32;95658.69;10229553;28;1896;-68
2022/07/28 22:29:16;;;;;;;;;;;;;;;22.98;44.46;95669.16;10229489;28;2062;-69
2022/07/28 22:34:16;;;;;;;;;;;;;;;22.96;45.26;95681.84;10236872;28;1840;-68
2022/07/28 22:39:17;;;;;;;;;;;;;;;22.92;46.44;95676.38;10232882;28;1897;-67
2022/07/28 22:44:18;;;;;;;;;;;;;;;22.83;47.18;95674.69;10236525;29;1790;-67
2022/07/28 22:49:18;;;;;;;;;;;;;;;22.84;47.90;95674.41;10255104;28;1968;-68
2022/07/28 22:54:18;;;;;;;;;;;;;;;22.90;47.64;95665.31;10241240;28;1963;-69
2022/07/28 22:59:18;;;;;;;;;;;;;;;22.78;48.42;95645.69;10232858;28;2203;-70
2022/07/28 23:04:19;;;;;;;;;;;;;;;22.65;49.11;95629.50;10232049;28;2212;-69
2022/07/28 23:09:20;;;;;;;;;;;;;;;22.62;49.16;95627.47;10236069;28;2036;-68
2022/07/28 23:14:20;;;;;;;;;;;;;;;22.64;48.51;95635.88;10236746;28;2018;-68
2022/07/28 23:19:21;;;;;;;;;;;;;;;22.47;48.66;95621.59;10232080;28;2179;-68
2022/07/28 23:24:21;;;;;;;;;;;;;;;22.43;48.61;95626.69;10240853;28;1873;-68
2022/07/28 23:29:21;;;;;;;;;;;;;;;22.43;48.64;95617.97;10256377;28;2001;-68
2022/07/28 23:34:22;;;;;;;;;;;;;;;22.33;48.82;95611.00;10245868;28;1802;-67
2022/07/28 23:39:23;;;;;;;;;;;;;;;22.27;49.18;95620.06;10242828;28;1924;-67
2022/07/28 23:44:23;;;;;;;;;;;;;;;22.21;49.37;95634.41;10244856;28;1976;-67
2022/07/28 23:49:24;;;;;;;;;;;;;;;22.20;49.34;95630.19;10240513;28;1910;-68
2022/07/28 23:54:24;;;;;;;;;;;;;;;22.12;49.94;95628.19;10252879;28;1865;-68
2022/07/28 23:59:24;;;;;;;;;;;;;;;22.15;50.15;95625.00;10245718;28;1849;-69
